Time;durP1;ratioP1;P1;durP2;ratioP2;P2;SDS_P1;SDS_P2;PMS_P1;PMS_P2;Temp;Humidity;BMP_temperature;BMP_pressure;BME280_temperature;BME280_humidity;BME280_pressure;Samples;Min_cycle;Max_cycle;Signal;HPM_P1;HPM_P2
2023/10/20 00:02:25;;;;;;;;;;;;;;;4.22;77.63;100088.48;105559;1262;124923;-76
2023/10/20 00:04:52;;;;;;;;;;;;;;;4.19;77.87;100090.94;105741;1262;74611;-77
2023/10/20 00:07:20;;;;;;;;;;;;;;;4.21;77.99;100090.16;105722;1259;64014;-77
2023/10/20 00:09:46;;;;;;;;;;;;;;;4.22;77.91;100087.42;105671;1259;124912;-77
2023/10/20 00:12:13;;;;;;;;;;;;;;;4.21;77.94;100081.16;105684;1260;61986;-78
2023/10/20 00:14:40;;;;;;;;;;;;;;;4.22;78.10;100082.39;105642;1260;125336;-77
2023/10/20 00:17:06;;;;;;;;;;;;;;;4.24;78.17;100086.61;105729;1260;74180;-77
2023/10/20 00:19:33;;;;;;;;;;;;;;;4.23;78.10;100088.86;105758;1259;62190;-77
2023/10/20 00:22:00;;;;;;;;;;;;;;;4.22;78.05;100086.05;105848;1260;72931;-77
2023/10/20 00:24:27;;;;;;;;;;;;;;;4.23;78.21;100085.05;105839;1259;62088;-77
2023/10/20 00:26:53;;;;;;;;;;;;;;;4.25;78.31;100083.73;105535;1262;124892;-77
2023/10/20 00:29:20;;;;;;;;;;;;;;;4.26;78.22;100078.23;105800;1262;75486;-77
2023/10/20 00:31:47;;;;;;;;;;;;;;;4.28;78.15;100077.94;105684;1259;125035;-78
2023/10/20 00:34:14;;;;;;;;;;;;;;;4.28;78.30;100073.44;105789;1261;71205;-78
2023/10/20 00:36:40;;;;;;;;;;;;;;;4.32;78.44;100075.49;105804;1262;62204;-78
2023/10/20 00:39:07;;;;;;;;;;;;;;;4.34;78.53;100075.92;105767;1259;125285;-78
2023/10/20 00:41:35;;;;;;;;;;;;;;;4.36;78.36;100075.98;105807;1260;75498;-78
2023/10/20 00:44:03;;;;;;;;;;;;;;;4.33;78.37;100073.27;105605;1260;125451;-78
2023/10/20 00:46:29;;;;;;;;;;;;;;;4.32;78.36;100072.36;105680;1262;73219;-78
2023/10/20 00:48:56;;;;;;;;;;;;;;;4.31;78.45;100078.39;105644;1259;62175;-78
2023/10/20 00:51:24;;;;;;;;;;;;;;;4.32;78.64;100083.49;105525;1260;124741;-77
2023/10/20 00:53:51;;;;;;;;;;;;;;;4.34;78.51;100076.43;105604;1264;74428;-77
2023/10/20 00:56:17;;;;;;;;;;;;;;;4.35;78.77;100072.11;105533;1260;125962;-77
2023/10/20 00:58:43;;;;;;;;;;;;;;;4.35;78.66;100069.67;105701;1258;61943;-76
2023/10/20 01:01:11;;;;;;;;;;;;;;;4.34;78.66;100064.98;105654;1258;62056;-77
2023/10/20 01:03:38;;;;;;;;;;;;;;;4.36;78.77;100065.55;105626;1259;125369;-77
2023/10/20 01:06:05;;;;;;;;;;;;;;;4.37;78.77;100068.21;105811;1262;75187;-77
2023/10/20 01:08:31;;;;;;;;;;;;;;;4.40;78.90;100062.77;105573;1258;125412;-76
2023/10/20 01:10:58;;;;;;;;;;;;;;;4.41;78.81;100058.79;105730;1260;72800;-76
2023/10/20 01:13:25;;;;;;;;;;;;;;;4.39;78.81;100056.50;105698;1259;62090;-76
2023/10/20 01:15:51;;;;;;;;;;;;;;;4.36;78.66;100046.30;105473;1260;125333;-76
2023/10/20 01:18:18;;;;;;;;;;;;;;;4.35;78.79;100047.27;105717;1259;76391;-77
2023/10/20 01:20:44;;;;;;;;;;;;;;;4.32;78.80;100036.58;105565;1260;125238;-76
2023/10/20 01:23:11;;;;;;;;;;;;;;;4.29;78.77;100036.99;105634;1260;72469;-77
2023/10/20 01:25:37;;;;;;;;;;;;;;;4.23;78.73;100029.16;105720;1262;124948;-76
2023/10/20 01:28:04;;;;;;;;;;;;;;;4.20;78.91;100023.44;106347;1258;62105;-77
2023/10/20 01:30:31;;;;;;;;;;;;;;;4.17;78.93;100029.91;105672;1258;75171;-76
2023/10/20 01:32:57;;;;;;;;;;;;;;;4.15;79.01;100029.34;105642;1260;125114;-77
2023/10/20 01:35:24;;;;;;;;;;;;;;;4.14;78.89;100029.45;105875;1260;72676;-77
2023/10/20 01:37:50;;;;;;;;;;;;;;;4.12;79.03;100023.50;105754;1262;124969;-77
2023/10/20 01:40:19;;;;;;;;;;;;;;;4.13;79.14;100020.89;105618;1260;62089;-77
2023/10/20 01:42:46;;;;;;;;;;;;;;;4.13;79.34;100020.36;105844;1260;73560;-77
2023/10/20 01:45:12;;;;;;;;;;;;;;;4.11;79.17;100023.96;105745;1260;124765;-77
2023/10/20 01:47:40;;;;;;;;;;;;;;;4.12;79.23;100023.83;105658;1262;72683;-77
2023/10/20 01:50:06;;;;;;;;;;;;;;;4.14;79.33;100015.05;105606;1262;126045;-78
2023/10/20 01:52:33;;;;;;;;;;;;;;;4.17;79.22;100018.11;105635;1258;62150;-78
2023/10/20 01:55:00;;;;;;;;;;;;;;;4.16;79.13;100019.83;105649;1259;75483;-77
2023/10/20 01:57:26;;;;;;;;;;;;;;;4.16;79.11;100025.19;105583;1259;124757;-78
2023/10/20 01:59:53;;;;;;;;;;;;;;;4.15;78.95;100017.67;105607;1260;62256;-77
2023/10/20 02:02:19;;;;;;;;;;;;;;;4.10;79.00;100016.29;105516;1259;125011;-77
2023/10/20 02:04:46;;;;;;;;;;;;;;;4.07;79.05;100007.85;105818;1262;62142;-77
2023/10/20 02:07:13;;;;;;;;;;;;;;;4.07;79.09;100006.27;105643;1260;75290;-77
2023/10/20 02:09:39;;;;;;;;;;;;;;;4.07;79.04;100000.01;106410;1262;125450;-78
2023/10/20 02:12:06;;;;;;;;;;;;;;;4.08;79.24;99998.66;106366;1260;71106;-78
2023/10/20 02:14:33;;;;;;;;;;;;;;;4.06;78.92;99995.67;106187;1260;124783;-78
2023/10/20 02:16:59;;;;;;;;;;;;;;;4.03;79.00;99989.08;105687;1259;62054;-76
2023/10/20 02:19:26;;;;;;;;;;;;;;;3.99;79.07;99996.60;105705;1258;74254;-76
2023/10/20 02:21:53;;;;;;;;;;;;;;;3.96;79.18;99988.31;105465;1259;124411;-78
2023/10/20 02:24:20;;;;;;;;;;;;;;;3.92;79.07;99990.23;105713;1261;71176;-76
2023/10/20 02:26:46;;;;;;;;;;;;;;;3.88;79.01;99985.38;105649;1259;124626;-76
2023/10/20 02:29:13;;;;;;;;;;;;;;;3.86;79.36;99979.23;105671;1262;62028;-76
2023/10/20 02:31:40;;;;;;;;;;;;;;;3.85;79.29;99976.95;105549;1260;125337;-77
2023/10/20 02:34:06;;;;;;;;;;;;;;;3.86;79.53;99974.21;105706;1260;66359;-76
2023/10/20 02:36:34;;;;;;;;;;;;;;;3.87;79.56;99981.35;105830;1258;62191;-77
2023/10/20 02:39:01;;;;;;;;;;;;;;;3.86;79.45;99986.35;105621;1262;124767;-77
2023/10/20 02:41:28;;;;;;;;;;;;;;;3.84;79.60;99985.95;105740;1259;62166;-76
2023/10/20 02:43:55;;;;;;;;;;;;;;;3.84;79.40;99986.98;105462;1267;125738;-77
2023/10/20 02:46:21;;;;;;;;;;;;;;;3.85;79.65;99987.02;105687;1260;66193;-76
2023/10/20 02:48:48;;;;;;;;;;;;;;;3.87;79.74;99988.99;105746;1259;72695;-77
2023/10/20 02:51:15;;;;;;;;;;;;;;;3.87;79.59;99988.13;105683;1260;124630;-76
2023/10/20 02:53:41;;;;;;;;;;;;;;;3.84;79.65;99993.06;105921;1260;62013;-76
2023/10/20 02:56:11;;;;;;;;;;;;;;;3.84;79.54;99995.11;105713;1260;124836;-76
2023/10/20 02:58:38;;;;;;;;;;;;;;;3.84;79.67;99994.27;105842;1259;65947;-77
2023/10/20 03:01:05;;;;;;;;;;;;;;;3.86;79.63;99994.35;105820;1259;72643;-77
2023/10/20 03:03:31;;;;;;;;;;;;;;;3.88;79.65;99994.08;105613;1258;124570;-77
2023/10/20 03:05:59;;;;;;;;;;;;;;;3.88;79.58;99989.02;105647;1258;62278;-77
2023/10/20 03:08:25;;;;;;;;;;;;;;;3.88;79.67;99988.34;105579;1259;125619;-76
2023/10/20 03:10:52;;;;;;;;;;;;;;;3.88;79.61;99993.21;105728;1260;62041;-76
2023/10/20 03:13:19;;;;;;;;;;;;;;;3.87;79.71;99987.95;105741;1262;72733;-76
2023/10/20 03:15:46;;;;;;;;;;;;;;;3.87;79.77;99987.98;105515;1260;128156;-77
2023/10/20 03:18:14;;;;;;;;;;;;;;;3.88;79.73;99984.17;105757;1260;61975;-77
2023/10/20 03:20:41;;;;;;;;;;;;;;;3.88;79.74;99978.45;105631;1260;123535;-77
2023/10/20 03:23:08;;;;;;;;;;;;;;;3.90;79.80;99978.17;105677;1262;66235;-77
2023/10/20 03:25:36;;;;;;;;;;;;;;;3.92;79.89;99975.81;105770;1259;70746;-77
2023/10/20 03:28:03;;;;;;;;;;;;;;;3.92;79.91;99966.61;105699;1262;62141;-77
2023/10/20 03:30:29;;;;;;;;;;;;;;;3.93;79.96;99962.85;105719;1262;62015;-77
2023/10/20 03:32:56;;;;;;;;;;;;;;;3.97;80.08;99961.98;105679;1259;124730;-78
2023/10/20 03:35:22;;;;;;;;;;;;;;;4.01;79.90;99961.77;105711;1259;65518;-78
2023/10/20 03:37:54;;;;;;;;;;;;;;;4.00;79.92;99956.37;105788;1263;124984;-78
2023/10/20 03:40:24;;;;;;;;;;;;;;;4.02;79.87;99963.90;105878;1260;62034;-77
2023/10/20 03:42:51;;;;;;;;;;;;;;;4.03;79.92;99967.05;105794;1258;62043;-76
2023/10/20 03:45:17;;;;;;;;;;;;;;;4.02;79.91;99977.09;105560;1260;124601;-77
2023/10/20 03:47:44;;;;;;;;;;;;;;;4.01;79.84;99973.23;105659;1260;66244;-79
2023/10/20 03:50:15;;;;;;;;;;;;;;;4.00;79.85;99968.31;105616;1260;124780;-76
2023/10/20 03:52:44;;;;;;;;;;;;;;;4.00;79.90;99967.80;105694;1260;61984;-77
2023/10/20 03:55:15;;;;;;;;;;;;;;;4.02;79.96;99969.63;105684;1260;62112;-79
2023/10/20 03:57:47;;;;;;;;;;;;;;;4.04;80.09;99968.84;106270;1265;124798;-79
2023/10/20 04:00:29;;;;;;;;;;;;;;;4.05;80.00;99961.77;106405;1262;66346;-79
2023/10/20 04:02:56;;;;;;;;;;;;;;;4.04;79.88;99953.21;106291;1260;125726;-78
2023/10/20 04:05:23;;;;;;;;;;;;;;;4.07;79.99;99963.59;106335;1260;62047;-78
2023/10/20 04:07:50;;;;;;;;;;;;;;;4.11;80.10;99966.31;105568;1259;125047;-79
2023/10/20 04:10:20;;;;;;;;;;;;;;;4.16;80.14;99971.20;106574;1259;75211;-79
2023/10/20 04:12:47;;;;;;;;;;;;;;;4.15;79.89;99968.18;106328;1260;66353;-79
2023/10/20 04:15:19;;;;;;;;;;;;;;;4.14;80.01;99961.03;106204;1259;125008;-80
2023/10/20 04:17:51;;;;;;;;;;;;;;;4.15;80.00;99966.45;106343;1260;62829;-79
2023/10/20 04:20:18;;;;;;;;;;;;;;;4.16;80.09;99972.92;106351;1258;124789;-78
2023/10/20 04:22:49;;;;;;;;;;;;;;;4.17;79.98;99975.41;106340;1259;73569;-77
2023/10/20 04:25:19;;;;;;;;;;;;;;;4.18;80.05;99982.39;106938;1265;66658;-77
2023/10/20 04:28:32;;;;;;;;;;;;;;;4.20;80.09;99981.77;106304;1260;124937;-77
2023/10/20 04:41:56;;;;;;;;;;;;;;;4.16;79.89;99962.16;106446;1260;71436;-83
2023/10/20 04:57:50;;;;;;;;;;;;;;;4.19;79.91;99973.91;105528;1260;124933;-78
2023/10/20 05:07:50;;;;;;;;;;;;;;;4.11;79.73;99954.35;106307;1260;124961;-76
2023/10/20 05:10:17;;;;;;;;;;;;;;;4.07;79.69;99954.91;105820;1260;62073;-77
2023/10/20 05:12:44;;;;;;;;;;;;;;;4.08;79.69;99953.88;105677;1265;62065;-78
2023/10/20 05:15:11;;;;;;;;;;;;;;;4.06;79.71;99958.66;105700;1262;124689;-77
2023/10/20 05:17:37;;;;;;;;;;;;;;;4.02;79.58;99962.67;105902;1260;65240;-77
2023/10/20 05:20:14;;;;;;;;;;;;;;;4.01;79.62;99962.45;105901;1260;125274;-77
2023/10/20 05:22:40;;;;;;;;;;;;;;;3.99;79.65;99960.83;105866;1263;62049;-77
2023/10/20 05:25:08;;;;;;;;;;;;;;;3.99;79.73;99964.13;105944;1260;62058;-77
2023/10/20 05:27:34;;;;;;;;;;;;;;;3.99;79.59;99968.45;105772;1262;124847;-77
2023/10/20 05:30:03;;;;;;;;;;;;;;;4.01;79.74;99966.10;105957;1262;62160;-77
2023/10/20 05:32:33;;;;;;;;;;;;;;;4.03;79.81;99969.30;105712;1260;124798;-78
2023/10/20 05:35:00;;;;;;;;;;;;;;;4.02;79.51;99973.94;105837;1263;61950;-81
2023/10/20 05:37:27;;;;;;;;;;;;;;;4.00;79.49;99972.48;105950;1264;62047;-80
2023/10/20 05:39:53;;;;;;;;;;;;;;;4.01;79.73;99983.30;105847;1260;124657;-76
2023/10/20 05:42:20;;;;;;;;;;;;;;;4.03;79.67;99997.95;105684;1262;66295;-77
2023/10/20 05:45:02;;;;;;;;;;;;;;;4.07;79.68;100001.75;105625;1264;125213;-76
2023/10/20 05:47:30;;;;;;;;;;;;;;;4.08;79.68;99998.14;105886;1260;62308;-76
2023/10/20 05:50:00;;;;;;;;;;;;;;;4.13;79.71;100000.08;105750;1260;125424;-76
2023/10/20 05:52:27;;;;;;;;;;;;;;;4.14;79.44;99994.88;108903;1260;75486;-76
2023/10/20 05:54:55;;;;;;;;;;;;;;;4.15;79.51;99990.58;108657;1260;66263;-77
2023/10/20 05:57:22;;;;;;;;;;;;;;;4.16;79.50;99990.98;105599;1262;124780;-77
2023/10/20 05:59:49;;;;;;;;;;;;;;;4.16;79.31;99995.31;105659;1265;61984;-77
2023/10/20 06:02:16;;;;;;;;;;;;;;;4.15;79.34;99992.48;105525;1263;124734;-77
2023/10/20 06:04:42;;;;;;;;;;;;;;;4.19;79.53;99992.67;105576;1260;62006;-76
2023/10/20 06:07:09;;;;;;;;;;;;;;;4.20;79.47;99987.66;105553;1265;65299;-76
2023/10/20 06:09:35;;;;;;;;;;;;;;;4.21;79.29;99980.39;105474;1265;124861;-78
2023/10/20 06:12:03;;;;;;;;;;;;;;;4.19;79.25;99986.92;105415;1266;62160;-76
2023/10/20 06:14:30;;;;;;;;;;;;;;;4.17;79.30;99981.66;105535;1261;125028;-78
2023/10/20 06:16:57;;;;;;;;;;;;;;;4.15;79.19;99974.77;105718;1262;75503;-78
2023/10/20 06:19:24;;;;;;;;;;;;;;;4.13;79.25;99974.03;105623;1260;65707;-76
2023/10/20 06:21:51;;;;;;;;;;;;;;;4.12;79.28;99972.60;105528;1259;124556;-77
2023/10/20 06:24:17;;;;;;;;;;;;;;;4.12;79.32;99967.39;105678;1260;60496;-79
2023/10/20 06:26:44;;;;;;;;;;;;;;;4.13;79.33;99967.59;105550;1259;123481;-77
2023/10/20 06:32:41;;;;;;;;;;;;;;;4.10;79.18;99965.42;105586;1265;125660;-77
2023/10/20 06:34:42;;;;;;;;;;;;;;;4.09;79.14;99965.41;105528;1259;70760;-77
2023/10/20 06:37:08;;;;;;;;;;;;;;;4.07;79.10;99962.18;105597;1264;62096;-79
2023/10/20 06:39:37;;;;;;;;;;;;;;;4.09;79.32;99958.64;106189;1262;124602;-76
2023/10/20 06:42:06;;;;;;;;;;;;;;;4.14;79.43;99953.20;105791;1262;75879;-77
2023/10/20 06:44:36;;;;;;;;;;;;;;;4.16;79.42;99953.16;105629;1263;124756;-77
2023/10/20 06:47:02;;;;;;;;;;;;;;;4.17;79.23;99947.63;105733;1260;71417;-77
2023/10/20 06:49:29;;;;;;;;;;;;;;;4.18;79.26;99943.84;105696;1262;62169;-77
2023/10/20 06:51:56;;;;;;;;;;;;;;;4.20;79.14;99948.40;105643;1262;123425;-77
2023/10/20 06:54:22;;;;;;;;;;;;;;;4.19;79.15;99953.95;105676;1263;75491;-76
2023/10/20 06:56:49;;;;;;;;;;;;;;;4.19;79.12;99954.83;105545;1260;124609;-76
2023/10/20 06:59:15;;;;;;;;;;;;;;;4.19;79.07;99955.66;105750;1262;71115;-76
2023/10/20 07:01:42;;;;;;;;;;;;;;;4.16;78.96;99943.42;105543;1260;125275;-77
2023/10/20 07:04:09;;;;;;;;;;;;;;;4.18;78.98;99942.60;105857;1261;62409;-77
2023/10/20 07:06:36;;;;;;;;;;;;;;;4.18;79.03;99941.77;105768;1262;75015;-77
2023/10/20 07:09:11;;;;;;;;;;;;;;;4.17;78.74;99949.67;105628;1263;124756;-77
2023/10/20 07:11:38;;;;;;;;;;;;;;;4.13;78.63;99950.56;105694;1262;71639;-76
2023/10/20 07:14:05;;;;;;;;;;;;;;;4.15;78.93;99955.52;105588;1263;126549;-75
2023/10/20 07:16:32;;;;;;;;;;;;;;;4.16;78.81;99963.70;105688;1260;61945;-76
2023/10/20 07:19:00;;;;;;;;;;;;;;;4.12;78.65;99962.19;105709;1262;75407;-76
2023/10/20 07:21:27;;;;;;;;;;;;;;;4.12;78.73;99966.70;105696;1263;125521;-76
2023/10/20 07:23:53;;;;;;;;;;;;;;;4.10;78.54;99959.34;105679;1263;72706;-76
2023/10/20 07:26:20;;;;;;;;;;;;;;;4.11;78.63;99960.95;105680;1262;124762;-78
2023/10/20 07:28:46;;;;;;;;;;;;;;;4.07;78.47;99957.33;105733;1263;62063;-78
2023/10/20 07:31:13;;;;;;;;;;;;;;;4.06;78.51;99959.36;105726;1263;74189;-78
2023/10/20 07:33:40;;;;;;;;;;;;;;;4.06;78.41;99958.49;105727;1261;124830;-77
2023/10/20 07:36:07;;;;;;;;;;;;;;;4.07;78.46;99955.41;105804;1262;72778;-77
2023/10/20 07:38:33;;;;;;;;;;;;;;;4.08;78.49;99958.05;105617;1262;124831;-77
2023/10/20 07:41:06;;;;;;;;;;;;;;;4.08;78.40;99957.70;105737;1260;61934;-77
2023/10/20 07:43:33;;;;;;;;;;;;;;;4.08;78.53;99954.58;108117;1262;75438;-77
2023/10/20 07:45:59;;;;;;;;;;;;;;;4.07;78.50;99952.64;105766;1261;130748;-77
2023/10/20 07:48:26;;;;;;;;;;;;;;;4.10;78.50;99936.77;105741;1268;71742;-77
2023/10/20 07:50:52;;;;;;;;;;;;;;;4.13;78.55;99938.60;105563;1260;124907;-77
2023/10/20 07:53:19;;;;;;;;;;;;;;;4.15;78.53;99939.38;105634;1262;62043;-77
2023/10/20 07:55:46;;;;;;;;;;;;;;;4.16;78.40;99934.91;105560;1258;133410;-77
2023/10/20 07:58:12;;;;;;;;;;;;;;;4.16;78.43;99931.60;105698;1260;62076;-76
2023/10/20 08:00:39;;;;;;;;;;;;;;;4.11;78.27;99926.71;105655;1262;62724;-76
2023/10/20 08:03:05;;;;;;;;;;;;;;;4.08;78.34;99929.77;105601;1263;124566;-77
2023/10/20 08:05:35;;;;;;;;;;;;;;;4.10;78.58;99927.90;105607;1260;62170;-77
2023/10/20 08:08:01;;;;;;;;;;;;;;;4.14;78.69;99929.27;105661;1264;124909;-77
2023/10/20 08:10:28;;;;;;;;;;;;;;;4.14;78.58;99929.62;105692;1263;66282;-77
2023/10/20 08:12:55;;;;;;;;;;;;;;;4.17;78.48;99933.19;105741;1259;72727;-77
2023/10/20 08:15:22;;;;;;;;;;;;;;;4.18;78.63;99926.64;105605;1260;124611;-77
2023/10/20 08:17:50;;;;;;;;;;;;;;;4.20;78.59;99926.03;105712;1262;62054;-77
2023/10/20 08:20:16;;;;;;;;;;;;;;;4.19;78.30;99919.90;105530;1260;124930;-77
2023/10/20 08:22:43;;;;;;;;;;;;;;;4.17;78.32;99918.95;105720;1259;64739;-77
2023/10/20 08:25:10;;;;;;;;;;;;;;;4.19;78.46;99918.52;105613;1263;72689;-76
2023/10/20 08:27:36;;;;;;;;;;;;;;;4.20;78.36;99920.30;105781;1261;124757;-76
2023/10/20 08:30:04;;;;;;;;;;;;;;;4.21;78.44;99922.23;105627;1260;62175;-76
2023/10/20 08:32:31;;;;;;;;;;;;;;;4.18;78.45;99928.02;105620;1259;125098;-76
2023/10/20 08:34:58;;;;;;;;;;;;;;;4.16;78.34;99932.45;105825;1260;62061;-76
2023/10/20 08:37:25;;;;;;;;;;;;;;;4.12;78.30;99927.46;105736;1263;71493;-79
2023/10/20 08:39:54;;;;;;;;;;;;;;;4.16;78.77;99937.15;105610;1263;124783;-76
2023/10/20 08:42:21;;;;;;;;;;;;;;;4.15;78.41;99937.81;105863;1261;61897;-76
2023/10/20 08:44:49;;;;;;;;;;;;;;;4.13;78.45;99939.98;105589;1260;124710;-76
2023/10/20 08:47:16;;;;;;;;;;;;;;;4.15;78.69;99947.89;105575;1267;64857;-77
2023/10/20 08:49:42;;;;;;;;;;;;;;;4.19;78.68;99942.48;105532;1263;124725;-77
2023/10/20 08:52:12;;;;;;;;;;;;;;;4.19;78.55;99936.76;106440;1260;62102;-76
2023/10/20 08:54:39;;;;;;;;;;;;;;;4.21;78.75;99929.00;105582;1263;62031;-76
2023/10/20 08:57:06;;;;;;;;;;;;;;;4.26;78.98;99923.29;105531;1264;124853;-76
2023/10/20 08:59:33;;;;;;;;;;;;;;;4.31;78.84;99931.46;105634;1261;64000;-76
2023/10/20 09:02:02;;;;;;;;;;;;;;;4.32;78.62;99928.86;105644;1264;124731;-76
2023/10/20 09:04:29;;;;;;;;;;;;;;;4.31;78.74;99932.31;105596;1264;61985;-76
2023/10/20 09:07:14;;;;;;;;;;;;;;;4.28;78.49;99933.79;102591;1296;601118;-76
2023/10/20 09:09:40;;;;;;;;;;;;;;;4.23;78.60;99933.44;104982;1272;122863;-76
2023/10/20 09:12:08;;;;;;;;;;;;;;;4.26;78.87;99930.05;105075;1272;59960;-76
2023/10/20 09:14:39;;;;;;;;;;;;;;;4.26;78.75;99922.42;104872;1269;123066;-76
2023/10/20 09:17:06;;;;;;;;;;;;;;;4.24;78.86;99915.73;104884;1272;66315;-76
2023/10/20 09:19:33;;;;;;;;;;;;;;;4.29;78.98;99913.66;104797;1269;197480;-76
2023/10/20 09:21:59;;;;;;;;;;;;;;;4.31;78.88;99916.69;105170;1265;123581;-76
2023/10/20 09:24:30;;;;;;;;;;;;;;;4.28;78.80;99915.56;105171;1267;59375;-77
2023/10/20 09:26:57;;;;;;;;;;;;;;;4.28;79.08;99912.77;105162;1266;124934;-76
2023/10/20 09:29:24;;;;;;;;;;;;;;;4.30;78.97;99920.99;105141;1266;66441;-76
2023/10/20 09:31:50;;;;;;;;;;;;;;;4.30;79.11;99922.91;105074;1267;123912;-77
2023/10/20 09:34:17;;;;;;;;;;;;;;;4.34;79.28;99924.80;105256;1270;59778;-76
2023/10/20 09:36:46;;;;;;;;;;;;;;;4.36;79.17;99922.96;105280;1266;59991;-76
2023/10/20 09:39:16;;;;;;;;;;;;;;;4.34;78.96;99918.21;105166;1265;123545;-76
2023/10/20 09:41:44;;;;;;;;;;;;;;;4.34;79.00;99905.50;105152;1270;65482;-76
2023/10/20 09:44:12;;;;;;;;;;;;;;;4.32;79.09;99906.67;105130;1267;123932;-76
2023/10/20 09:46:47;;;;;;;;;;;;;;;4.28;79.04;99912.59;105200;1267;59625;-76
2023/10/20 09:49:15;;;;;;;;;;;;;;;4.22;79.14;99903.17;105193;1270;59926;-76
2023/10/20 09:51:43;;;;;;;;;;;;;;;4.19;79.36;99902.03;105248;1269;123957;-76
2023/10/20 09:54:09;;;;;;;;;;;;;;;4.22;79.58;99897.96;105233;1267;64752;-76
2023/10/20 09:56:36;;;;;;;;;;;;;;;4.28;79.66;99892.79;105130;1266;124068;-76
2023/10/20 09:59:04;;;;;;;;;;;;;;;4.33;79.63;99896.96;105287;1265;59666;-78
2023/10/20 10:01:31;;;;;;;;;;;;;;;4.37;79.58;99898.99;105302;1269;59703;-77
2023/10/20 10:04:03;;;;;;;;;;;;;;;4.40;79.39;99895.66;105199;1265;123435;-77
2023/10/20 10:06:34;;;;;;;;;;;;;;;4.43;79.34;99902.52;105234;1267;66138;-76
2023/10/20 10:09:03;;;;;;;;;;;;;;;4.41;79.27;99899.52;105105;1266;124157;-76
2023/10/20 10:11:31;;;;;;;;;;;;;;;4.45;79.33;99901.22;106576;1269;59585;-76
2023/10/20 10:14:02;;;;;;;;;;;;;;;4.46;79.16;99899.02;105166;1267;123904;-76
2023/10/20 10:16:29;;;;;;;;;;;;;;;4.46;79.23;99901.09;105144;1267;74200;-77
2023/10/20 10:19:05;;;;;;;;;;;;;;;4.48;79.32;99899.60;105068;1268;65066;-77
2023/10/20 10:21:36;;;;;;;;;;;;;;;4.55;79.20;99898.08;105025;1267;124056;-77
2023/10/20 10:24:13;;;;;;;;;;;;;;;4.57;79.18;99898.50;105252;1270;59580;-76
2023/10/20 10:26:49;;;;;;;;;;;;;;;4.54;78.86;99888.16;104979;1266;123847;-77
2023/10/20 10:29:15;;;;;;;;;;;;;;;4.51;79.03;99883.72;105206;1266;71837;-77
2023/10/20 10:31:42;;;;;;;;;;;;;;;4.51;78.97;99884.76;105151;1270;123672;-77
2023/10/20 10:34:10;;;;;;;;;;;;;;;4.53;79.03;99884.83;105214;1265;71534;-77
2023/10/20 10:36:42;;;;;;;;;;;;;;;4.54;79.00;99888.17;105238;1266;59699;-77
2023/10/20 10:39:19;;;;;;;;;;;;;;;4.56;79.03;99889.08;105223;1269;123577;-77
2023/10/20 10:41:46;;;;;;;;;;;;;;;4.56;78.96;99878.52;105773;1266;73014;-77
2023/10/20 10:44:13;;;;;;;;;;;;;;;4.59;79.03;99876.37;106162;1261;123980;-77
2023/10/20 10:46:39;;;;;;;;;;;;;;;4.60;78.98;99873.08;106104;1261;71370;-77
2023/10/20 10:49:07;;;;;;;;;;;;;;;4.60;78.96;99870.16;105540;1259;60209;-76
2023/10/20 10:51:41;;;;;;;;;;;;;;;4.64;79.02;99868.38;105527;1259;123831;-75
2023/10/20 10:54:08;;;;;;;;;;;;;;;4.70;79.02;99874.63;105614;1260;72913;-76
2023/10/20 10:56:34;;;;;;;;;;;;;;;4.70;78.98;99875.17;105452;1259;123824;-76
2023/10/20 10:59:01;;;;;;;;;;;;;;;4.71;78.90;99881.27;105542;1259;73131;-76
2023/10/20 11:01:28;;;;;;;;;;;;;;;4.73;78.82;99886.20;105614;1260;58700;-77
2023/10/20 11:03:54;;;;;;;;;;;;;;;4.72;78.52;99890.02;105532;1259;123881;-76
2023/10/20 11:06:21;;;;;;;;;;;;;;;4.71;78.55;99887.52;105649;1259;71814;-77
2023/10/20 11:08:47;;;;;;;;;;;;;;;4.70;78.37;99887.14;105549;1259;123755;-77
2023/10/20 11:11:15;;;;;;;;;;;;;;;4.70;78.54;99887.87;105591;1261;72710;-77
2023/10/20 11:13:42;;;;;;;;;;;;;;;4.73;78.53;99886.54;105505;1260;123880;-77
2023/10/20 11:16:09;;;;;;;;;;;;;;;4.73;78.57;99888.46;106007;1264;60501;-77
2023/10/20 11:18:36;;;;;;;;;;;;;;;4.73;78.47;99890.74;105981;1261;71572;-77
2023/10/20 11:21:03;;;;;;;;;;;;;;;4.76;78.46;99884.95;105582;1259;124023;-76
2023/10/20 11:23:30;;;;;;;;;;;;;;;4.76;78.44;99879.72;105548;1259;72714;-76
2023/10/20 11:25:59;;;;;;;;;;;;;;;4.75;78.37;99884.05;105562;1260;123874;-76
2023/10/20 11:28:26;;;;;;;;;;;;;;;4.74;78.23;99871.98;105688;1259;60187;-77
2023/10/20 11:30:53;;;;;;;;;;;;;;;4.71;78.36;99866.36;105560;1263;72272;-77
2023/10/20 11:33:20;;;;;;;;;;;;;;;4.73;78.43;99867.09;106156;1262;123476;-76
2023/10/20 11:35:46;;;;;;;;;;;;;;;4.74;78.40;99863.50;105837;1258;72425;-78
2023/10/20 11:38:14;;;;;;;;;;;;;;;4.76;78.48;99867.91;105729;1264;124176;-77
2023/10/20 11:40:41;;;;;;;;;;;;;;;4.74;78.37;99863.14;105733;1259;59632;-77
2023/10/20 11:43:08;;;;;;;;;;;;;;;4.75;78.27;99866.29;105855;1262;73038;-77
2023/10/20 11:45:34;;;;;;;;;;;;;;;4.74;78.38;99863.48;105685;1260;123936;-77
2023/10/20 11:48:02;;;;;;;;;;;;;;;4.75;78.37;99866.09;105599;1257;72972;-78
2023/10/20 11:50:28;;;;;;;;;;;;;;;4.75;78.31;99878.48;106100;1258;123796;-77
2023/10/20 11:52:55;;;;;;;;;;;;;;;4.75;78.23;99880.90;106360;1256;59660;-77
2023/10/20 11:55:21;;;;;;;;;;;;;;;4.75;78.39;99874.64;106391;1258;74279;-77
2023/10/20 11:57:48;;;;;;;;;;;;;;;4.76;78.26;99877.30;106226;1258;123705;-76
2023/10/20 12:00:14;;;;;;;;;;;;;;;4.76;78.30;99882.84;105729;1257;72655;-77
2023/10/20 12:02:41;;;;;;;;;;;;;;;4.76;78.27;99891.02;105828;1257;123718;-78
2023/10/20 12:05:08;;;;;;;;;;;;;;;4.77;78.28;99887.93;105896;1257;59895;-75
2023/10/20 12:07:35;;;;;;;;;;;;;;;4.79;78.27;99888.67;105853;1257;72893;-76
2023/10/20 12:10:05;;;;;;;;;;;;;;;4.82;78.33;99885.83;105646;1260;123800;-78
2023/10/20 12:12:32;;;;;;;;;;;;;;;4.82;78.22;99885.66;105780;1259;70108;-77
2023/10/20 12:15:00;;;;;;;;;;;;;;;4.83;78.31;99890.56;105647;1258;124082;-77
2023/10/20 12:17:26;;;;;;;;;;;;;;;4.87;78.37;99894.86;105739;1260;60238;-75
2023/10/20 12:19:53;;;;;;;;;;;;;;;4.91;78.25;99904.21;105637;1257;123935;-76
2023/10/20 12:22:19;;;;;;;;;;;;;;;4.88;78.01;99903.41;105755;1257;66346;-78
2023/10/20 12:24:46;;;;;;;;;;;;;;;4.83;77.88;99908.11;106250;1257;72765;-76
2023/10/20 12:27:13;;;;;;;;;;;;;;;4.79;77.88;99910.41;105590;1260;123918;-77
2023/10/20 12:29:40;;;;;;;;;;;;;;;4.75;77.87;99899.15;105713;1261;60034;-77
2023/10/20 12:32:10;;;;;;;;;;;;;;;4.74;77.92;99891.99;105690;1257;124071;-77
2023/10/20 12:34:36;;;;;;;;;;;;;;;4.75;77.83;99881.23;105858;1262;65577;-77
2023/10/20 12:37:03;;;;;;;;;;;;;;;4.77;77.97;99880.27;105891;1256;71084;-77
2023/10/20 12:39:31;;;;;;;;;;;;;;;4.74;77.74;99877.92;105765;1257;123920;-76
2023/10/20 12:42:04;;;;;;;;;;;;;;;4.73;77.76;99881.33;108896;1258;60120;-77
2023/10/20 12:44:33;;;;;;;;;;;;;;;4.73;77.82;99878.38;105738;1258;123690;-76
2023/10/20 12:47:00;;;;;;;;;;;;;;;4.73;77.92;99876.14;105646;1259;64976;-77
2023/10/20 12:49:26;;;;;;;;;;;;;;;4.72;77.75;99877.16;105769;1258;70244;-77
2023/10/20 12:51:53;;;;;;;;;;;;;;;4.71;77.71;99867.89;105515;1258;123730;-77
2023/10/20 12:54:19;;;;;;;;;;;;;;;4.72;77.86;99868.64;105786;1259;60123;-78
2023/10/20 12:56:46;;;;;;;;;;;;;;;4.74;77.80;99873.20;105639;1258;124104;-77
2023/10/20 12:59:13;;;;;;;;;;;;;;;4.72;77.72;99867.05;105661;1261;66235;-78
2023/10/20 13:01:39;;;;;;;;;;;;;;;4.69;77.69;99872.34;106291;1261;72721;-77
2023/10/20 13:04:07;;;;;;;;;;;;;;;4.68;77.75;99875.11;106389;1257;59688;-77
2023/10/20 13:06:34;;;;;;;;;;;;;;;4.67;77.80;99872.80;106405;1257;60117;-77
2023/10/20 13:09:01;;;;;;;;;;;;;;;4.65;77.79;99878.31;105704;1258;124357;-76
2023/10/20 13:11:27;;;;;;;;;;;;;;;4.65;77.69;99872.05;106059;1258;66341;-77
2023/10/20 13:13:54;;;;;;;;;;;;;;;4.66;77.78;99877.29;105785;1260;124067;-77
2023/10/20 13:16:21;;;;;;;;;;;;;;;4.66;77.72;99879.04;105741;1257;60466;-77
2023/10/20 13:18:47;;;;;;;;;;;;;;;4.65;77.80;99880.56;105662;1262;61091;-78